sensor_id;sensor_type;location;lat;lon;timestamp;pressure;altitude;pressure_sealevel;temperature;humidity
68107;BME280;54892;47.488;19.026;2022-09-09T00:03:00;99698.63;;;18.60;80.72
68107;BME280;54892;47.488;19.026;2022-09-09T00:06:09;99711.53;;;18.49;81.55
68107;BME280;54892;47.488;19.026;2022-09-09T00:09:17;99692.81;;;18.49;81.36
68107;BME280;54892;47.488;19.026;2022-09-09T00:12:27;99684.47;;;18.41;81.34
68107;BME280;54892;47.488;19.026;2022-09-09T00:15:37;99676.47;;;18.41;81.56
68107;BME280;54892;47.488;19.026;2022-09-09T00:18:51;99685.09;;;18.56;80.90
68107;BME280;54892;47.488;19.026;2022-09-09T00:22:07;99697.22;;;18.45;80.98
68107;BME280;54892;47.488;19.026;2022-09-09T00:25:21;99712.75;;;18.51;81.01
68107;BME280;54892;47.488;19.026;2022-09-09T00:28:27;99709.94;;;18.56;82.00
68107;BME280;54892;47.488;19.026;2022-09-09T00:31:33;99708.84;;;18.49;81.99
68107;BME280;54892;47.488;19.026;2022-09-09T00:34:46;99705.56;;;18.43;81.04
68107;BME280;54892;47.488;19.026;2022-09-09T00:37:53;99706.81;;;18.46;81.82
68107;BME280;54892;47.488;19.026;2022-09-09T00:41:04;99710.28;;;18.29;82.90
68107;BME280;54892;47.488;19.026;2022-09-09T00:44:19;99715.59;;;18.37;81.96
68107;BME280;54892;47.488;19.026;2022-09-09T00:47:46;99714.66;;;18.33;82.85
68107;BME280;54892;47.488;19.026;2022-09-09T00:50:53;99713.38;;;18.31;82.64
68107;BME280;54892;47.488;19.026;2022-09-09T00:54:21;99713.25;;;18.36;83.22
68107;BME280;54892;47.488;19.026;2022-09-09T00:57:29;99713.09;;;18.41;82.08
68107;BME280;54892;47.488;19.026;2022-09-09T01:00:35;99708.69;;;18.36;82.17
68107;BME280;54892;47.488;19.026;2022-09-09T01:03:46;99713.72;;;18.29;82.15
68107;BME280;54892;47.488;19.026;2022-09-09T01:06:57;99726.44;;;18.15;82.30
68107;BME280;54892;47.488;19.026;2022-09-09T01:10:09;99730.06;;;18.28;82.42
68107;BME280;54892;47.488;19.026;2022-09-09T01:13:23;99735.41;;;18.36;82.53
68107;BME280;54892;47.488;19.026;2022-09-09T01:16:27;99731.00;;;18.40;82.16
68107;BME280;54892;47.488;19.026;2022-09-09T01:19:43;99729.28;;;18.27;82.10
68107;BME280;54892;47.488;19.026;2022-09-09T01:22:51;99729.13;;;18.32;82.76
68107;BME280;54892;47.488;19.026;2022-09-09T01:26:26;99730.53;;;18.30;81.80
68107;BME280;54892;47.488;19.026;2022-09-09T01:29:30;99741.06;;;18.35;82.63
68107;BME280;54892;47.488;19.026;2022-09-09T01:32:41;99749.06;;;18.35;82.75
68107;BME280;54892;47.488;19.026;2022-09-09T01:35:50;99748.41;;;18.11;82.82
68107;BME280;54892;47.488;19.026;2022-09-09T01:38:56;99747.00;;;18.05;84.29
68107;BME280;54892;47.488;19.026;2022-09-09T01:42:01;99738.84;;;18.28;82.90
68107;BME280;54892;47.488;19.026;2022-09-09T01:45:05;99723.78;;;18.32;82.50
68107;BME280;54892;47.488;19.026;2022-09-09T01:48:09;99731.44;;;18.07;83.16
68107;BME280;54892;47.488;19.026;2022-09-09T01:51:12;99729.59;;;18.17;83.51
68107;BME280;54892;47.488;19.026;2022-09-09T01:54:15;99745.78;;;18.29;83.22
68107;BME280;54892;47.488;19.026;2022-09-09T01:57:23;99749.53;;;18.19;83.65
68107;BME280;54892;47.488;19.026;2022-09-09T02:00:28;99738.84;;;18.19;81.20
68107;BME280;54892;47.488;19.026;2022-09-09T02:03:35;99742.63;;;18.27;81.11
68107;BME280;54892;47.488;19.026;2022-09-09T02:06:39;99724.56;;;18.33;79.55
68107;BME280;54892;47.488;19.026;2022-09-09T02:09:47;99719.22;;;18.41;78.52
68107;BME280;54892;47.488;19.026;2022-09-09T02:13:00;99720.78;;;18.34;77.67
68107;BME280;54892;47.488;19.026;2022-09-09T02:16:07;99728.31;;;18.32;77.86
68107;BME280;54892;47.488;19.026;2022-09-09T02:19:14;99728.16;;;18.28;77.95
68107;BME280;54892;47.488;19.026;2022-09-09T02:22:21;99728.75;;;18.07;78.56
68107;BME280;54892;47.488;19.026;2022-09-09T02:25:28;99738.53;;;18.12;78.97
68107;BME280;54892;47.488;19.026;2022-09-09T02:28:34;99738.22;;;18.14;79.44
68107;BME280;54892;47.488;19.026;2022-09-09T02:31:41;99733.97;;;18.21;79.46
68107;BME280;54892;47.488;19.026;2022-09-09T02:34:49;99732.09;;;18.04;80.42
68107;BME280;54892;47.488;19.026;2022-09-09T02:37:54;99731.12;;;18.00;81.47
68107;BME280;54892;47.488;19.026;2022-09-09T02:41:00;99736.91;;;17.93;81.79
68107;BME280;54892;47.488;19.026;2022-09-09T02:44:09;99746.72;;;17.75;82.27
68107;BME280;54892;47.488;19.026;2022-09-09T02:47:24;99746.28;;;17.91;81.22
68107;BME280;54892;47.488;19.026;2022-09-09T02:50:33;99744.16;;;18.02;79.81
68107;BME280;54892;47.488;19.026;2022-09-09T02:53:41;99749.75;;;17.91;79.65
68107;BME280;54892;47.488;19.026;2022-09-09T02:56:52;99747.56;;;17.85;80.36
68107;BME280;54892;47.488;19.026;2022-09-09T02:59:58;99751.78;;;17.86;79.42
68107;BME280;54892;47.488;19.026;2022-09-09T03:03:03;99742.28;;;18.02;78.53
68107;BME280;54892;47.488;19.026;2022-09-09T03:06:06;99744.16;;;18.10;76.21
68107;BME280;54892;47.488;19.026;2022-09-09T03:09:10;99755.34;;;18.21;76.39
68107;BME280;54892;47.488;19.026;2022-09-09T03:12:14;99758.78;;;18.22;76.97
68107;BME280;54892;47.488;19.026;2022-09-09T03:15:19;99761.66;;;18.34;76.39
68107;BME280;54892;47.488;19.026;2022-09-09T03:18:22;99766.69;;;18.36;76.52
68107;BME280;54892;47.488;19.026;2022-09-09T03:21:26;99766.06;;;18.48;77.24
68107;BME280;54892;47.488;19.026;2022-09-09T03:24:29;99776.25;;;18.28;78.27
68107;BME280;54892;47.488;19.026;2022-09-09T03:27:32;99775.78;;;18.26;78.95
68107;BME280;54892;47.488;19.026;2022-09-09T03:30:36;99774.69;;;18.27;78.48
68107;BME280;54892;47.488;19.026;2022-09-09T03:33:39;99776.22;;;18.10;79.10
68107;BME280;54892;47.488;19.026;2022-09-09T03:36:44;99773.16;;;17.86;81.36
68107;BME280;54892;47.488;19.026;2022-09-09T03:39:47;99769.62;;;17.59;82.22
68107;BME280;54892;47.488;19.026;2022-09-09T03:42:51;99770.94;;;17.47;82.74
68107;BME280;54892;47.488;19.026;2022-09-09T03:45:55;99769.84;;;17.48;83.19
68107;BME280;54892;47.488;19.026;2022-09-09T03:48:58;99767.69;;;17.50;83.58
68107;BME280;54892;47.488;19.026;2022-09-09T03:52:04;99766.72;;;17.46;84.28
68107;BME280;54892;47.488;19.026;2022-09-09T03:55:07;99775.69;;;17.50;83.64
68107;BME280;54892;47.488;19.026;2022-09-09T03:58:11;99790.88;;;17.41;84.38
68107;BME280;54892;47.488;19.026;2022-09-09T04:01:15;99790.44;;;17.25;85.31
68107;BME280;54892;47.488;19.026;2022-09-09T04:04:19;99783.69;;;17.19;85.55
68107;BME280;54892;47.488;19.026;2022-09-09T04:07:23;99789.28;;;17.40;84.28
68107;BME280;54892;47.488;19.026;2022-09-09T04:10:27;99791.31;;;17.34;85.26
68107;BME280;54892;47.488;19.026;2022-09-09T04:13:30;99789.91;;;17.37;84.87
68107;BME280;54892;47.488;19.026;2022-09-09T04:16:35;99775.09;;;17.31;84.08
68107;BME280;54892;47.488;19.026;2022-09-09T04:19:39;99783.84;;;17.23;85.52
68107;BME280;54892;47.488;19.026;2022-09-09T04:22:43;99785.16;;;17.34;84.80
68107;BME280;54892;47.488;19.026;2022-09-09T04:25:48;99776.34;;;17.25;85.75
68107;BME280;54892;47.488;19.026;2022-09-09T04:28:52;99791.47;;;17.38;84.93
68107;BME280;54892;47.488;19.026;2022-09-09T04:31:56;99788.22;;;17.18;85.04
68107;BME280;54892;47.488;19.026;2022-09-09T04:35:00;99781.91;;;17.14;84.65
68107;BME280;54892;47.488;19.026;2022-09-09T04:38:04;99783.31;;;17.12;84.50
68107;BME280;54892;47.488;19.026;2022-09-09T04:41:09;99780.97;;;17.10;84.50
68107;BME280;54892;47.488;19.026;2022-09-09T04:44:13;99791.44;;;17.07;83.52
68107;BME280;54892;47.488;19.026;2022-09-09T04:47:17;99774.88;;;17.18;83.06
68107;BME280;54892;47.488;19.026;2022-09-09T04:50:20;99777.00;;;17.30;82.59
68107;BME280;54892;47.488;19.026;2022-09-09T04:53:23;99770.09;;;17.29;82.26
68107;BME280;54892;47.488;19.026;2022-09-09T04:56:27;99768.88;;;17.35;81.77
68107;BME280;54892;47.488;19.026;2022-09-09T04:59:30;99768.28;;;17.47;81.42
68107;BME280;54892;47.488;19.026;2022-09-09T05:02:38;99777.12;;;17.57;80.73
68107;BME280;54892;47.488;19.026;2022-09-09T05:05:41;99789.03;;;17.50;80.45
68107;BME280;54892;47.488;19.026;2022-09-09T05:08:45;99791.34;;;17.43;80.61
68107;BME280;54892;47.488;19.026;2022-09-09T05:11:48;99789.34;;;17.49;80.56
68107;BME280;54892;47.488;19.026;2022-09-09T05:14:52;99784.97;;;17.62;80.03
68107;BME280;54892;47.488;19.026;2022-09-09T05:17:58;99784.53;;;17.69;79.44
68107;BME280;54892;47.488;19.026;2022-09-09T05:21:02;99787.41;;;17.72;78.70
68107;BME280;54892;47.488;19.026;2022-09-09T05:24:06;99781.78;;;17.83;78.46
68107;BME280;54892;47.488;19.026;2022-09-09T05:27:09;99784.31;;;17.88;78.48
68107;BME280;54892;47.488;19.026;2022-09-09T05:30:14;99782.56;;;17.92;78.12
68107;BME280;54892;47.488;19.026;2022-09-09T05:33:18;99796.41;;;17.94;78.06
68107;BME280;54892;47.488;19.026;2022-09-09T05:36:23;99787.31;;;17.95;77.53
68107;BME280;54892;47.488;19.026;2022-09-09T05:39:27;99786.22;;;17.96;77.71
68107;BME280;54892;47.488;19.026;2022-09-09T05:42:30;99795.78;;;17.97;77.78
68107;BME280;54892;47.488;19.026;2022-09-09T05:45:34;99796.50;;;18.11;77.57
68107;BME280;54892;47.488;19.026;2022-09-09T05:48:40;99792.44;;;18.23;77.32
68107;BME280;54892;47.488;19.026;2022-09-09T05:51:44;99794.50;;;18.35;77.13
68107;BME280;54892;47.488;19.026;2022-09-09T05:54:48;99798.00;;;18.53;76.72
68107;BME280;54892;47.488;19.026;2022-09-09T05:57:51;99805.53;;;18.60;76.88
68107;BME280;54892;47.488;19.026;2022-09-09T06:01:00;99801.59;;;18.57;76.44
68107;BME280;54892;47.488;19.026;2022-09-09T06:04:05;99807.72;;;18.93;75.38
68107;BME280;54892;47.488;19.026;2022-09-09T06:07:08;99812.28;;;18.75;76.35
68107;BME280;54892;47.488;19.026;2022-09-09T06:10:12;99813.72;;;18.90;76.01
68107;BME280;54892;47.488;19.026;2022-09-09T06:13:16;99807.59;;;18.98;76.36
68107;BME280;54892;47.488;19.026;2022-09-09T06:16:21;99816.09;;;19.09;76.50
68107;BME280;54892;47.488;19.026;2022-09-09T06:19:26;99808.69;;;19.14;76.21
68107;BME280;54892;47.488;19.026;2022-09-09T06:22:29;99813.56;;;19.04;76.63
68107;BME280;54892;47.488;19.026;2022-09-09T06:25:33;99807.59;;;18.98;73.46
68107;BME280;54892;47.488;19.026;2022-09-09T06:28:37;99818.78;;;19.00;74.08
68107;BME280;54892;47.488;19.026;2022-09-09T06:31:40;99820.47;;;19.22;73.05
68107;BME280;54892;47.488;19.026;2022-09-09T06:34:44;99819.25;;;19.11;72.74
68107;BME280;54892;47.488;19.026;2022-09-09T06:37:48;99817.44;;;19.41;72.13
68107;BME280;54892;47.488;19.026;2022-09-09T06:40:52;99815.66;;;19.54;72.13
68107;BME280;54892;47.488;19.026;2022-09-09T06:43:56;99816.25;;;19.69;71.38
68107;BME280;54892;47.488;19.026;2022-09-09T06:47:00;99809.75;;;19.78;70.52
68107;BME280;54892;47.488;19.026;2022-09-09T06:50:05;99818.13;;;19.77;70.36
68107;BME280;54892;47.488;19.026;2022-09-09T06:53:10;99817.87;;;19.52;70.01
68107;BME280;54892;47.488;19.026;2022-09-09T06:56:20;99813.03;;;19.45;71.15
68107;BME280;54892;47.488;19.026;2022-09-09T06:59:25;99821.34;;;19.61;70.88
68107;BME280;54892;47.488;19.026;2022-09-09T07:02:29;99821.91;;;19.76;69.73
68107;BME280;54892;47.488;19.026;2022-09-09T07:05:34;99826.41;;;19.93;68.77
68107;BME280;54892;47.488;19.026;2022-09-09T07:08:38;99829.31;;;20.09;68.23
68107;BME280;54892;47.488;19.026;2022-09-09T07:11:42;99826.34;;;20.11;68.23
68107;BME280;54892;47.488;19.026;2022-09-09T07:14:46;99831.28;;;20.00;68.51
68107;BME280;54892;47.488;19.026;2022-09-09T07:17:49;99837.28;;;19.97;69.06
68107;BME280;54892;47.488;19.026;2022-09-09T07:20:54;99834.91;;;20.55;67.56
68107;BME280;54892;47.488;19.026;2022-09-09T07:23:59;99835.13;;;22.87;59.71
68107;BME280;54892;47.488;19.026;2022-09-09T07:27:02;99831.25;;;24.09;55.97
68107;BME280;54892;47.488;19.026;2022-09-09T07:30:08;99840.91;;;24.46;54.45
68107;BME280;54892;47.488;19.026;2022-09-09T07:33:13;99838.34;;;24.33;53.66
68107;BME280;54892;47.488;19.026;2022-09-09T07:36:20;99842.06;;;24.65;53.36
68107;BME280;54892;47.488;19.026;2022-09-09T07:39:23;99848.13;;;24.97;51.08
68107;BME280;54892;47.488;19.026;2022-09-09T07:42:26;99853.53;;;25.40;50.54
68107;BME280;54892;47.488;19.026;2022-09-09T07:45:31;99853.72;;;25.97;48.32
68107;BME280;54892;47.488;19.026;2022-09-09T07:48:36;99865.94;;;26.72;46.04
68107;BME280;54892;47.488;19.026;2022-09-09T07:51:42;99859.16;;;26.55;46.57
68107;BME280;54892;47.488;19.026;2022-09-09T07:54:47;99858.44;;;26.04;46.37
68107;BME280;54892;47.488;19.026;2022-09-09T07:57:50;99859.72;;;25.87;46.43
68107;BME280;54892;47.488;19.026;2022-09-09T08:00:53;99854.91;;;25.30;48.10
68107;BME280;54892;47.488;19.026;2022-09-09T08:03:59;99850.88;;;25.01;49.76
68107;BME280;54892;47.488;19.026;2022-09-09T08:07:04;99852.59;;;24.89;49.59
68107;BME280;54892;47.488;19.026;2022-09-09T08:10:08;99860.88;;;24.61;50.07
68107;BME280;54892;47.488;19.026;2022-09-09T08:13:15;99858.59;;;24.63;50.13
68107;BME280;54892;47.488;19.026;2022-09-09T08:16:28;99850.19;;;24.48;50.05
68107;BME280;54892;47.488;19.026;2022-09-09T08:19:31;99853.16;;;24.08;50.66
68107;BME280;54892;47.488;19.026;2022-09-09T08:22:39;99851.97;;;23.57;51.50
68107;BME280;54892;47.488;19.026;2022-09-09T08:25:43;99840.03;;;23.74;51.88
68107;BME280;54892;47.488;19.026;2022-09-09T08:28:47;99844.66;;;23.90;51.68
68107;BME280;54892;47.488;19.026;2022-09-09T08:31:54;99849.59;;;23.87;51.84
68107;BME280;54892;47.488;19.026;2022-09-09T08:34:59;99845.44;;;24.06;51.62
68107;BME280;54892;47.488;19.026;2022-09-09T08:38:03;99845.19;;;24.11;51.00
68107;BME280;54892;47.488;19.026;2022-09-09T08:44:55;99847.97;;;23.99;50.04
68107;BME280;54892;47.488;19.026;2022-09-09T08:48:21;99843.50;;;23.91;50.05
68107;BME280;54892;47.488;19.026;2022-09-09T08:51:31;99846.91;;;23.87;50.90
68107;BME280;54892;47.488;19.026;2022-09-09T08:54:36;99851.00;;;23.81;50.12
68107;BME280;54892;47.488;19.026;2022-09-09T08:57:53;99852.91;;;23.81;49.76
68107;BME280;54892;47.488;19.026;2022-09-09T09:01:02;99852.72;;;23.90;48.96
68107;BME280;54892;47.488;19.026;2022-09-09T09:04:30;99851.34;;;23.80;48.84
68107;BME280;54892;47.488;19.026;2022-09-09T09:07:47;99844.75;;;23.77;47.59
68107;BME280;54892;47.488;19.026;2022-09-09T09:10:56;99851.34;;;23.64;49.36
68107;BME280;54892;47.488;19.026;2022-09-09T09:14:04;99844.22;;;23.39;46.24
68107;BME280;54892;47.488;19.026;2022-09-09T09:17:13;99838.22;;;23.46;46.37
68107;BME280;54892;47.488;19.026;2022-09-09T09:20:23;99841.94;;;23.41;46.36
68107;BME280;54892;47.488;19.026;2022-09-09T09:23:34;99844.69;;;23.29;46.08
68107;BME280;54892;47.488;19.026;2022-09-09T09:26:43;99839.16;;;23.38;46.22
68107;BME280;54892;47.488;19.026;2022-09-09T09:29:48;99829.94;;;23.23;46.15
68107;BME280;54892;47.488;19.026;2022-09-09T09:33:15;99822.50;;;23.48;46.71
68107;BME280;54892;47.488;19.026;2022-09-09T09:36:21;99816.38;;;23.51;45.72
68107;BME280;54892;47.488;19.026;2022-09-09T09:39:28;99814.75;;;23.63;46.57
68107;BME280;54892;47.488;19.026;2022-09-09T09:42:54;99816.84;;;23.37;44.72
68107;BME280;54892;47.488;19.026;2022-09-09T09:45:58;99819.09;;;23.51;46.86
68107;BME280;54892;47.488;19.026;2022-09-09T09:49:14;99827.72;;;23.57;45.74
68107;BME280;54892;47.488;19.026;2022-09-09T09:52:22;99831.19;;;23.57;45.45
68107;BME280;54892;47.488;19.026;2022-09-09T09:55:26;99828.72;;;23.52;45.00
68107;BME280;54892;47.488;19.026;2022-09-09T09:58:33;99826.66;;;23.62;46.68
68107;BME280;54892;47.488;19.026;2022-09-09T10:01:40;99824.84;;;23.66;45.99
68107;BME280;54892;47.488;19.026;2022-09-09T10:04:44;99836.22;;;23.43;45.33
68107;BME280;54892;47.488;19.026;2022-09-09T10:08:04;99830.25;;;23.66;45.73
68107;BME280;54892;47.488;19.026;2022-09-09T10:11:23;99821.00;;;23.67;45.32
68107;BME280;54892;47.488;19.026;2022-09-09T10:14:38;99826.81;;;23.69;44.70
68107;BME280;54892;47.488;19.026;2022-09-09T10:17:48;99826.81;;;23.69;41.67
68107;BME280;54892;47.488;19.026;2022-09-09T10:21:04;99833.97;;;23.77;43.07
68107;BME280;54892;47.488;19.026;2022-09-09T10:24:26;99819.09;;;23.99;43.86
68107;BME280;54892;47.488;19.026;2022-09-09T10:27:38;99817.50;;;24.14;40.76
68107;BME280;54892;47.488;19.026;2022-09-09T10:30:54;99815.97;;;24.33;41.48
68107;BME280;54892;47.488;19.026;2022-09-09T10:34:09;99820.53;;;24.29;41.00
68107;BME280;54892;47.488;19.026;2022-09-09T10:37:31;99818.41;;;24.38;40.63
68107;BME280;54892;47.488;19.026;2022-09-09T10:40:44;99819.56;;;24.57;39.95
68107;BME280;54892;47.488;19.026;2022-09-09T10:44:06;99817.56;;;24.54;40.15
68107;BME280;54892;47.488;19.026;2022-09-09T10:47:41;99817.69;;;24.61;40.59
68107;BME280;54892;47.488;19.026;2022-09-09T10:50:54;99818.22;;;24.67;40.41
68107;BME280;54892;47.488;19.026;2022-09-09T10:54:12;99813.75;;;24.74;40.83
68107;BME280;54892;47.488;19.026;2022-09-09T10:57:26;99812.69;;;24.79;41.45
68107;BME280;54892;47.488;19.026;2022-09-09T11:00:39;99814.16;;;24.96;41.19
68107;BME280;54892;47.488;19.026;2022-09-09T11:03:48;99818.91;;;24.44;41.89
68107;BME280;54892;47.488;19.026;2022-09-09T11:06:55;99813.03;;;24.58;41.46
68107;BME280;54892;47.488;19.026;2022-09-09T11:10:02;99809.53;;;24.57;39.95
68107;BME280;54892;47.488;19.026;2022-09-09T11:13:11;99803.50;;;24.64;41.55
68107;BME280;54892;47.488;19.026;2022-09-09T11:16:23;99804.88;;;24.74;41.65
68107;BME280;54892;47.488;19.026;2022-09-09T11:19:33;99800.66;;;24.76;41.56
68107;BME280;54892;47.488;19.026;2022-09-09T11:22:39;99796.34;;;24.72;42.34
68107;BME280;54892;47.488;19.026;2022-09-09T11:25:50;99799.91;;;24.76;41.96
68107;BME280;54892;47.488;19.026;2022-09-09T11:29:10;99802.81;;;24.87;41.62
68107;BME280;54892;47.488;19.026;2022-09-09T11:32:31;99805.72;;;24.98;40.61
68107;BME280;54892;47.488;19.026;2022-09-09T11:35:55;99794.50;;;25.19;41.27
68107;BME280;54892;47.488;19.026;2022-09-09T11:39:09;99803.03;;;25.21;41.70
68107;BME280;54892;47.488;19.026;2022-09-09T11:42:24;99797.78;;;25.32;43.29
68107;BME280;54892;47.488;19.026;2022-09-09T11:45:29;99798.47;;;25.25;42.00
68107;BME280;54892;47.488;19.026;2022-09-09T11:48:34;99786.94;;;25.28;42.02
68107;BME280;54892;47.488;19.026;2022-09-09T11:51:39;99777.59;;;25.22;42.37
68107;BME280;54892;47.488;19.026;2022-09-09T11:54:47;99789.84;;;24.96;42.76
68107;BME280;54892;47.488;19.026;2022-09-09T11:57:57;99788.47;;;24.83;42.76
68107;BME280;54892;47.488;19.026;2022-09-09T12:01:01;99791.59;;;24.85;42.71
68107;BME280;54892;47.488;19.026;2022-09-09T12:04:28;99790.38;;;24.82;42.85
68107;BME280;54892;47.488;19.026;2022-09-09T12:07:35;99782.47;;;24.93;43.69
68107;BME280;54892;47.488;19.026;2022-09-09T12:10:40;99781.03;;;24.99;43.85
68107;BME280;54892;47.488;19.026;2022-09-09T12:13:53;99788.88;;;25.04;43.25
68107;BME280;54892;47.488;19.026;2022-09-09T12:16:56;99807.62;;;24.97;42.98
68107;BME280;54892;47.488;19.026;2022-09-09T12:20:01;99800.59;;;24.73;43.76
68107;BME280;54892;47.488;19.026;2022-09-09T12:23:18;99805.28;;;24.96;43.78
68107;BME280;54892;47.488;19.026;2022-09-09T12:26:31;99806.53;;;25.02;43.18
68107;BME280;54892;47.488;19.026;2022-09-09T12:29:43;99793.09;;;24.82;43.42
68107;BME280;54892;47.488;19.026;2022-09-09T12:33:01;99791.78;;;24.96;43.50
68107;BME280;54892;47.488;19.026;2022-09-09T12:36:06;99782.59;;;25.00;42.93
68107;BME280;54892;47.488;19.026;2022-09-09T12:39:27;99774.63;;;25.07;43.00
68107;BME280;54892;47.488;19.026;2022-09-09T12:42:32;99768.41;;;25.27;42.55
68107;BME280;54892;47.488;19.026;2022-09-09T12:45:40;99768.22;;;25.16;41.68
68107;BME280;54892;47.488;19.026;2022-09-09T12:48:44;99768.03;;;25.05;42.01
68107;BME280;54892;47.488;19.026;2022-09-09T12:51:48;99761.72;;;25.20;42.30
68107;BME280;54892;47.488;19.026;2022-09-09T12:54:53;99759.81;;;25.21;42.75
68107;BME280;54892;47.488;19.026;2022-09-09T12:57:56;99762.75;;;25.12;42.76
68107;BME280;54892;47.488;19.026;2022-09-09T13:01:03;99756.47;;;25.04;42.84
68107;BME280;54892;47.488;19.026;2022-09-09T13:04:19;99753.44;;;25.09;43.15
68107;BME280;54892;47.488;19.026;2022-09-09T13:07:23;99734.72;;;24.97;42.29
68107;BME280;54892;47.488;19.026;2022-09-09T13:10:31;99732.31;;;24.92;43.09
68107;BME280;54892;47.488;19.026;2022-09-09T13:13:50;99726.00;;;25.07;41.04
68107;BME280;54892;47.488;19.026;2022-09-09T13:16:55;99720.31;;;25.13;40.95
68107;BME280;54892;47.488;19.026;2022-09-09T13:20:00;99731.69;;;25.22;41.38
68107;BME280;54892;47.488;19.026;2022-09-09T13:23:04;99724.03;;;25.28;41.50
68107;BME280;54892;47.488;19.026;2022-09-09T13:26:21;99712.56;;;25.34;41.15
68107;BME280;54892;47.488;19.026;2022-09-09T13:29:25;99713.81;;;25.41;40.51
68107;BME280;54892;47.488;19.026;2022-09-09T13:32:28;99715.69;;;25.36;40.53
68107;BME280;54892;47.488;19.026;2022-09-09T13:35:33;99717.13;;;25.30;40.16
68107;BME280;54892;47.488;19.026;2022-09-09T13:38:37;99719.84;;;25.30;40.27
68107;BME280;54892;47.488;19.026;2022-09-09T13:41:44;99710.22;;;25.33;40.00
68107;BME280;54892;47.488;19.026;2022-09-09T13:44:50;99707.47;;;25.29;40.49
68107;BME280;54892;47.488;19.026;2022-09-09T13:47:53;99707.84;;;25.28;40.59
68107;BME280;54892;47.488;19.026;2022-09-09T13:50:58;99709.31;;;25.25;41.19
68107;BME280;54892;47.488;19.026;2022-09-09T13:54:03;99705.91;;;25.28;41.02
68107;BME280;54892;47.488;19.026;2022-09-09T13:57:16;99696.56;;;25.22;40.65
68107;BME280;54892;47.488;19.026;2022-09-09T14:00:20;99694.75;;;25.30;39.59
68107;BME280;54892;47.488;19.026;2022-09-09T14:03:23;99692.62;;;25.43;38.40
68107;BME280;54892;47.488;19.026;2022-09-09T14:06:26;99679.25;;;25.50;37.74
68107;BME280;54892;47.488;19.026;2022-09-09T14:09:30;99675.06;;;25.56;37.86
68107;BME280;54892;47.488;19.026;2022-09-09T14:12:35;99674.41;;;25.39;36.97
68107;BME280;54892;47.488;19.026;2022-09-09T14:15:38;99673.91;;;25.30;37.93
68107;BME280;54892;47.488;19.026;2022-09-09T14:18:42;99664.75;;;25.12;38.63
68107;BME280;54892;47.488;19.026;2022-09-09T14:21:45;99666.44;;;25.20;38.73
68107;BME280;54892;47.488;19.026;2022-09-09T14:24:49;99659.81;;;25.17;39.24
68107;BME280;54892;47.488;19.026;2022-09-09T14:27:54;99663.19;;;25.11;38.68
68107;BME280;54892;47.488;19.026;2022-09-09T14:30:59;99659.34;;;25.12;39.10
68107;BME280;54892;47.488;19.026;2022-09-09T14:34:03;99666.59;;;25.07;39.65
68107;BME280;54892;47.488;19.026;2022-09-09T14:37:07;99668.03;;;25.24;38.91
68107;BME280;54892;47.488;19.026;2022-09-09T14:40:11;99659.47;;;25.19;39.22
68107;BME280;54892;47.488;19.026;2022-09-09T14:43:18;99668.22;;;25.35;39.51
68107;BME280;54892;47.488;19.026;2022-09-09T14:46:22;99659.06;;;25.17;39.29
68107;BME280;54892;47.488;19.026;2022-09-09T14:49:25;99656.44;;;25.24;39.71
68107;BME280;54892;47.488;19.026;2022-09-09T14:52:29;99661.34;;;25.15;38.98
68107;BME280;54892;47.488;19.026;2022-09-09T14:55:32;99656.56;;;25.04;39.15
68107;BME280;54892;47.488;19.026;2022-09-09T14:58:37;99659.38;;;24.88;38.31
68107;BME280;54892;47.488;19.026;2022-09-09T15:01:40;99662.97;;;24.96;38.86
68107;BME280;54892;47.488;19.026;2022-09-09T15:04:44;99668.31;;;24.92;38.95
68107;BME280;54892;47.488;19.026;2022-09-09T15:07:47;99663.63;;;24.89;39.00
68107;BME280;54892;47.488;19.026;2022-09-09T15:10:57;99660.25;;;24.96;39.43
68107;BME280;54892;47.488;19.026;2022-09-09T15:14:02;99657.56;;;24.96;39.47
68107;BME280;54892;47.488;19.026;2022-09-09T15:17:05;99665.37;;;25.01;39.90
68107;BME280;54892;47.488;19.026;2022-09-09T15:20:09;99656.00;;;24.95;40.15
68107;BME280;54892;47.488;19.026;2022-09-09T15:23:12;99664.53;;;24.97;39.44
68107;BME280;54892;47.488;19.026;2022-09-09T15:26:16;99660.81;;;25.05;39.48
68107;BME280;54892;47.488;19.026;2022-09-09T15:29:22;99657.03;;;25.10;39.90
68107;BME280;54892;47.488;19.026;2022-09-09T15:32:25;99670.38;;;25.26;39.75
68107;BME280;54892;47.488;19.026;2022-09-09T15:35:29;99658.84;;;25.29;39.41
68107;BME280;54892;47.488;19.026;2022-09-09T15:38:32;99661.03;;;25.20;38.08
68107;BME280;54892;47.488;19.026;2022-09-09T15:41:35;99661.72;;;25.13;38.25
68107;BME280;54892;47.488;19.026;2022-09-09T15:44:40;99655.50;;;25.13;38.52
68107;BME280;54892;47.488;19.026;2022-09-09T15:47:44;99658.03;;;25.02;38.23
68107;BME280;54892;47.488;19.026;2022-09-09T15:51:01;99663.81;;;25.00;38.87
68107;BME280;54892;47.488;19.026;2022-09-09T15:54:05;99653.69;;;24.93;38.66
68107;BME280;54892;47.488;19.026;2022-09-09T15:57:14;99653.69;;;24.93;39.31
68107;BME280;54892;47.488;19.026;2022-09-09T16:00:18;99652.72;;;24.82;38.90
68107;BME280;54892;47.488;19.026;2022-09-09T16:03:21;99659.59;;;24.80;39.34
68107;BME280;54892;47.488;19.026;2022-09-09T16:06:25;99661.84;;;24.74;38.42
68107;BME280;54892;47.488;19.026;2022-09-09T16:09:31;99661.78;;;24.70;38.68
68107;BME280;54892;47.488;19.026;2022-09-09T16:12:34;99662.03;;;24.85;38.44
68107;BME280;54892;47.488;19.026;2022-09-09T16:15:38;99675.28;;;24.70;39.28
68107;BME280;54892;47.488;19.026;2022-09-09T16:18:44;99680.94;;;24.65;39.41
68107;BME280;54892;47.488;19.026;2022-09-09T16:21:48;99682.38;;;24.59;39.76
68107;BME280;54892;47.488;19.026;2022-09-09T16:24:52;99676.91;;;24.55;40.20